Time;durP1;ratioP1;P1;durP2;ratioP2;P2;SDS_P1;SDS_P2;PMS_P1;PMS_P2;Temp;Humidity;BMP_temperature;BMP_pressure;BME280_temperature;BME280_humidity;BME280_pressure;Samples;Min_cycle;Max_cycle;Signal;HPM_P1;HPM_P2
2023/08/06 00:01:28;;;;;;;1.85;0.60;;;;;;;;;;6239226;28;20215;-84
2023/08/06 00:04:37;;;;;;;4.38;0.90;;;;;;;;;;6238970;28;20061;-85
2023/08/06 00:07:38;;;;;;;1.90;0.47;;;;;;;;;;6240721;28;21254;-86
2023/08/06 00:10:42;;;;;;;1.25;0.73;;;;;;;;;;6244015;28;20073;-83
2023/08/06 00:13:43;;;;;;;0.65;0.43;;;;;;;;;;6241142;28;20052;-85
2023/08/06 00:16:45;;;;;;;1.13;0.75;;;;;;;;;;6244065;28;20357;-86
2023/08/06 00:19:47;;;;;;;1.30;0.60;;;;;;;;;;6241631;28;20061;-85
2023/08/06 00:22:48;;;;;;;1.05;0.52;;;;;;;;;;6242984;28;20053;-87
2023/08/06 00:25:51;;;;;;;1.35;0.80;;;;;;;;;;6242822;28;20329;-87
2023/08/06 00:28:52;;;;;;;2.33;0.60;;;;;;;;;;6240077;28;20064;-88
2023/08/06 00:31:54;;;;;;;2.88;0.75;;;;;;;;;;6244042;28;20143;-89
2023/08/06 00:34:56;;;;;;;2.58;0.70;;;;;;;;;;6243039;28;20057;-87
2023/08/06 00:37:57;;;;;;;2.20;0.88;;;;;;;;;;6241972;28;20061;-83
2023/08/06 00:41:00;;;;;;;2.58;1.15;;;;;;;;;;6242094;28;20341;-89
2023/08/06 00:44:02;;;;;;;1.63;1.05;;;;;;;;;;6241453;28;20317;-86
2023/08/06 00:47:03;;;;;;;2.88;0.90;;;;;;;;;;6240982;28;20062;-85
2023/08/06 00:50:06;;;;;;;2.42;0.88;;;;;;;;;;6240940;28;20042;-85
2023/08/06 00:53:07;;;;;;;1.15;0.70;;;;;;;;;;6240907;28;20237;-85
2023/08/06 00:56:10;;;;;;;2.75;0.80;;;;;;;;;;6243930;28;20253;-85
2023/08/06 00:59:12;;;;;;;1.55;1.05;;;;;;;;;;6244477;28;20099;-84
2023/08/06 01:02:14;;;;;;;1.08;0.70;;;;;;;;;;6243327;28;20041;-83
2023/08/06 01:05:15;;;;;;;2.70;0.80;;;;;;;;;;6243091;28;20337;-85
2023/08/06 01:08:21;;;;;;;1.42;0.68;;;;;;;;;;6239284;28;20053;-85
2023/08/06 01:11:27;;;;;;;1.77;0.80;;;;;;;;;;6243462;28;20049;-85
2023/08/06 01:14:29;;;;;;;1.52;0.80;;;;;;;;;;6243845;28;20125;-86
2023/08/06 01:17:31;;;;;;;2.22;0.80;;;;;;;;;;6242019;28;20065;-82
2023/08/06 01:20:34;;;;;;;3.03;0.80;;;;;;;;;;6241422;28;20050;-86
2023/08/06 01:23:36;;;;;;;2.13;0.75;;;;;;;;;;6242383;28;20060;-83
2023/08/06 01:26:40;;;;;;;2.25;0.90;;;;;;;;;;6242923;28;20049;-84
2023/08/06 01:29:43;;;;;;;2.55;0.82;;;;;;;;;;6241054;28;20045;-76
2023/08/06 01:32:46;;;;;;;1.20;0.60;;;;;;;;;;6259502;28;20065;-84
2023/08/06 01:35:50;;;;;;;1.15;0.70;;;;;;;;;;6263165;28;20233;-84
2023/08/06 01:38:52;;;;;;;1.13;0.82;;;;;;;;;;6265915;28;20056;-86
2023/08/06 01:41:54;;;;;;;1.15;0.77;;;;;;;;;;6266870;28;20048;-81
2023/08/06 01:44:55;;;;;;;1.48;0.82;;;;;;;;;;6269236;28;20132;-86
2023/08/06 01:47:57;;;;;;;1.52;0.80;;;;;;;;;;6264506;28;20091;-85
2023/08/06 01:51:00;;;;;;;2.00;0.98;;;;;;;;;;6266752;28;20080;-86
2023/08/06 01:54:01;;;;;;;1.27;0.80;;;;;;;;;;6266883;28;20056;-86
2023/08/06 01:57:03;;;;;;;3.58;0.90;;;;;;;;;;6265207;28;20121;-85
2023/08/06 02:00:05;;;;;;;1.77;0.80;;;;;;;;;;6265021;28;20036;-85
2023/08/06 02:03:07;;;;;;;1.48;0.82;;;;;;;;;;6264364;28;20061;-84
2023/08/06 02:06:09;;;;;;;2.03;0.85;;;;;;;;;;6266916;28;20077;-81
2023/08/06 02:09:11;;;;;;;1.98;0.80;;;;;;;;;;6264077;28;20061;-82
2023/08/06 02:12:12;;;;;;;1.48;1.00;;;;;;;;;;6263810;28;20048;-89
2023/08/06 02:15:14;;;;;;;1.60;0.80;;;;;;;;;;6265957;28;20347;-82
2023/08/06 02:18:15;;;;;;;1.30;0.70;;;;;;;;;;6263851;28;20056;-86
2023/08/06 02:21:18;;;;;;;1.23;0.80;;;;;;;;;;6263643;28;20057;-84
2023/08/06 02:24:20;;;;;;;2.03;0.98;;;;;;;;;;6265015;28;20349;-86
2023/08/06 02:27:22;;;;;;;2.78;1.38;;;;;;;;;;6266067;28;20120;-85
2023/08/06 02:30:23;;;;;;;3.58;1.00;;;;;;;;;;6265330;28;20084;-81
2023/08/06 02:33:25;;;;;;;2.17;1.20;;;;;;;;;;6241673;28;20057;-87
2023/08/06 02:36:29;;;;;;;3.03;1.13;;;;;;;;;;6238644;28;20061;-85
2023/08/06 02:39:30;;;;;;;1.83;0.93;;;;;;;;;;6236657;28;20083;-86
2023/08/06 02:42:32;;;;;;;1.75;0.90;;;;;;;;;;6242067;28;20080;-83
2023/08/06 02:45:33;;;;;;;1.70;0.80;;;;;;;;;;6239043;28;20051;-89
2023/08/06 02:48:35;;;;;;;3.42;1.10;;;;;;;;;;6240889;28;20272;-85
2023/08/06 02:51:38;;;;;;;3.95;1.10;;;;;;;;;;6237447;28;20329;-80
2023/08/06 02:54:39;;;;;;;1.50;0.80;;;;;;;;;;6238953;28;20057;-82
2023/08/06 02:57:40;;;;;;;1.65;1.10;;;;;;;;;;6238070;28;20064;-89
2023/08/06 03:00:43;;;;;;;1.30;0.80;;;;;;;;;;6239875;28;20045;-85
2023/08/06 03:03:44;;;;;;;1.55;1.00;;;;;;;;;;6240845;28;20296;-86
2023/08/06 03:06:51;;;;;;;2.45;0.70;;;;;;;;;;6238768;28;20287;-85
2023/08/06 03:09:53;;;;;;;2.03;0.80;;;;;;;;;;6238925;28;20046;-85
2023/08/06 03:12:54;;;;;;;1.08;0.70;;;;;;;;;;6238731;28;20072;-89
2023/08/06 03:15:56;;;;;;;1.83;0.80;;;;;;;;;;6241111;28;20493;-89
2023/08/06 03:18:57;;;;;;;0.95;0.75;;;;;;;;;;6242968;28;20380;-89
2023/08/06 03:22:00;;;;;;;1.13;0.75;;;;;;;;;;6239331;28;20061;-87
2023/08/06 03:25:02;;;;;;;1.00;0.63;;;;;;;;;;6238626;28;20073;-87
2023/08/06 03:28:03;;;;;;;1.23;0.70;;;;;;;;;;6239922;28;20044;-81
2023/08/06 03:31:05;;;;;;;3.15;0.90;;;;;;;;;;6239210;28;20305;-86
2023/08/06 03:34:06;;;;;;;1.33;0.88;;;;;;;;;;6239921;28;20049;-87
2023/08/06 03:37:09;;;;;;;1.67;0.95;;;;;;;;;;6236757;28;20238;-85
2023/08/06 03:40:11;;;;;;;2.53;0.80;;;;;;;;;;6238677;28;20053;-88
2023/08/06 03:43:13;;;;;;;1.10;0.60;;;;;;;;;;6243766;28;20060;-89
2023/08/06 03:46:16;;;;;;;1.35;0.70;;;;;;;;;;6246119;28;20045;-86
2023/08/06 03:49:18;;;;;;;2.03;0.93;;;;;;;;;;6241846;28;20057;-87
2023/08/06 03:52:20;;;;;;;1.58;0.80;;;;;;;;;;6243308;28;20309;-90
2023/08/06 03:55:22;;;;;;;4.65;1.05;;;;;;;;;;6243999;28;20049;-89
2023/08/06 03:58:24;;;;;;;2.28;1.25;;;;;;;;;;6246889;28;20061;-86
2023/08/06 04:01:25;;;;;;;1.33;0.90;;;;;;;;;;6241743;28;20060;-84
2023/08/06 04:04:26;;;;;;;1.55;0.90;;;;;;;;;;6244137;28;20054;-89
2023/08/06 04:07:29;;;;;;;1.40;0.90;;;;;;;;;;6243643;28;20065;-89
2023/08/06 04:10:31;;;;;;;1.52;0.70;;;;;;;;;;6246024;28;20049;-88
2023/08/06 04:13:32;;;;;;;2.15;1.00;;;;;;;;;;6244360;28;20229;-82
2023/08/06 04:16:34;;;;;;;2.70;0.80;;;;;;;;;;6242579;28;20060;-90
2023/08/06 04:19:35;;;;;;;1.27;0.80;;;;;;;;;;6241657;28;20057;-83
2023/08/06 04:22:38;;;;;;;1.27;0.70;;;;;;;;;;6244502;28;20064;-81
2023/08/06 04:25:43;;;;;;;1.58;1.00;;;;;;;;;;6234777;28;20338;-88
2023/08/06 04:28:44;;;;;;;1.55;0.90;;;;;;;;;;6243682;28;20062;-89
2023/08/06 04:31:46;;;;;;;3.60;1.30;;;;;;;;;;6240376;28;20115;-85
2023/08/06 04:34:47;;;;;;;2.85;1.20;;;;;;;;;;6244522;28;20057;-88
2023/08/06 04:37:50;;;;;;;3.28;1.00;;;;;;;;;;6245164;28;20053;-89
2023/08/06 04:40:52;;;;;;;1.83;1.20;;;;;;;;;;6243845;28;20056;-88
2023/08/06 04:43:54;;;;;;;2.05;1.10;;;;;;;;;;6243413;28;20076;-87
2023/08/06 04:46:55;;;;;;;2.78;1.48;;;;;;;;;;6241955;28;20962;-89
2023/08/06 04:49:57;;;;;;;3.78;1.10;;;;;;;;;;6240746;28;20064;-89
2023/08/06 04:52:59;;;;;;;6.78;1.50;;;;;;;;;;6241347;28;20053;-90
2023/08/06 04:56:01;;;;;;;2.47;1.40;;;;;;;;;;6243574;28;20061;-89
2023/08/06 04:59:02;;;;;;;4.30;1.45;;;;;;;;;;6243114;28;20475;-87
2023/08/06 05:02:04;;;;;;;3.17;1.50;;;;;;;;;;6241187;28;20108;-87
2023/08/06 05:05:06;;;;;;;3.25;1.30;;;;;;;;;;6240976;28;20057;-90
2023/08/06 05:08:15;;;;;;;2.65;1.80;;;;;;;;;;6241900;28;20053;-84
2023/08/06 05:11:17;;;;;;;3.40;1.30;;;;;;;;;;6241714;28;20049;-90
2023/08/06 05:14:18;;;;;;;3.53;1.52;;;;;;;;;;6240956;28;20057;-90
2023/08/06 05:17:20;;;;;;;4.13;1.60;;;;;;;;;;6234134;28;20081;-84
2023/08/06 05:20:21;;;;;;;4.50;1.70;;;;;;;;;;6244212;28;20345;-91
2023/08/06 05:23:24;;;;;;;3.28;1.38;;;;;;;;;;6242621;28;20069;-90
2023/08/06 05:26:26;;;;;;;2.60;1.43;;;;;;;;;;6243494;28;20057;-86
2023/08/06 05:29:27;;;;;;;2.30;1.42;;;;;;;;;;6240851;28;20238;-86
2023/08/06 05:32:29;;;;;;;2.90;1.48;;;;;;;;;;6243160;28;20057;-88
2023/08/06 05:35:31;;;;;;;2.45;1.40;;;;;;;;;;6240961;28;20045;-88
2023/08/06 05:38:34;;;;;;;1.67;1.33;;;;;;;;;;6240957;28;20049;-79
2023/08/06 05:41:35;;;;;;;3.45;1.52;;;;;;;;;;6243225;28;20061;-83
2023/08/06 05:44:37;;;;;;;2.10;1.50;;;;;;;;;;6246242;28;20084;-88
2023/08/06 05:47:38;;;;;;;2.80;1.80;;;;;;;;;;6244839;28;20103;-82
2023/08/06 05:50:40;;;;;;;5.75;2.22;;;;;;;;;;6239225;28;20046;-87
2023/08/06 05:53:43;;;;;;;2.50;1.98;;;;;;;;;;6239337;28;20049;-88
2023/08/06 05:56:44;;;;;;;3.70;2.00;;;;;;;;;;6241400;28;20057;-87
2023/08/06 05:59:46;;;;;;;4.05;1.67;;;;;;;;;;6240867;28;20053;-87
2023/08/06 06:02:47;;;;;;;2.60;1.70;;;;;;;;;;6240391;28;20160;-90
2023/08/06 06:05:49;;;;;;;2.92;1.52;;;;;;;;;;6240202;28;20115;-88
2023/08/06 06:08:52;;;;;;;4.43;1.75;;;;;;;;;;6240849;28;20052;-86
2023/08/06 06:11:53;;;;;;;4.00;1.80;;;;;;;;;;6239576;28;20053;-88
2023/08/06 06:14:55;;;;;;;2.50;1.75;;;;;;;;;;6232428;28;20971;-90
2023/08/06 06:17:57;;;;;;;2.40;1.33;;;;;;;;;;6243048;28;20046;-89
2023/08/06 06:20:58;;;;;;;1.60;1.20;;;;;;;;;;6239593;28;20057;-81
2023/08/06 06:24:01;;;;;;;2.65;1.15;;;;;;;;;;6240494;28;20042;-88
2023/08/06 06:27:03;;;;;;;3.03;0.93;;;;;;;;;;6238180;28;20080;-89
2023/08/06 06:30:04;;;;;;;2.70;1.10;;;;;;;;;;6233334;28;20472;-89
2023/08/06 06:33:06;;;;;;;2.55;1.10;;;;;;;;;;6243634;28;20053;-89
2023/08/06 06:36:08;;;;;;;2.08;1.20;;;;;;;;;;6239155;28;20056;-90
2023/08/06 06:39:11;;;;;;;4.13;1.25;;;;;;;;;;6240916;28;20435;-88
2023/08/06 06:42:14;;;;;;;2.72;1.40;;;;;;;;;;6239627;28;20056;-89
2023/08/06 06:45:16;;;;;;;3.03;1.77;;;;;;;;;;6239164;28;20041;-89
2023/08/06 06:48:17;;;;;;;2.53;1.60;;;;;;;;;;6240670;28;20053;-82
2023/08/06 06:51:19;;;;;;;3.67;1.58;;;;;;;;;;6239449;28;20061;-83
2023/08/06 06:54:22;;;;;;;2.00;1.42;;;;;;;;;;6241470;28;20056;-90
2023/08/06 06:57:23;;;;;;;1.92;1.40;;;;;;;;;;6241664;28;20057;-88
2023/08/06 07:00:25;;;;;;;2.10;1.40;;;;;;;;;;6240529;28;20061;-92
2023/08/06 07:03:27;;;;;;;2.70;1.40;;;;;;;;;;6240144;28;20121;-89
2023/08/06 07:06:29;;;;;;;1.73;1.33;;;;;;;;;;6238223;28;20262;-88
2023/08/06 07:09:32;;;;;;;2.70;1.30;;;;;;;;;;6238741;28;20058;-83
2023/08/06 07:12:33;;;;;;;2.03;1.30;;;;;;;;;;6239318;28;20107;-88
2023/08/06 07:15:35;;;;;;;1.48;1.10;;;;;;;;;;6239891;28;20057;-88
2023/08/06 07:18:36;;;;;;;2.25;1.20;;;;;;;;;;6240241;28;20061;-89
2023/08/06 07:21:38;;;;;;;1.80;0.88;;;;;;;;;;6237554;28;20073;-90
2023/08/06 07:24:40;;;;;;;2.30;0.90;;;;;;;;;;6238658;28;20249;-89
2023/08/06 07:27:42;;;;;;;1.58;0.90;;;;;;;;;;6240692;28;20054;-90
2023/08/06 07:30:44;;;;;;;2.28;1.10;;;;;;;;;;6238371;28;20050;-87
2023/08/06 07:33:46;;;;;;;2.95;0.82;;;;;;;;;;6264948;28;20219;-90
2023/08/06 07:36:47;;;;;;;1.52;0.90;;;;;;;;;;6265280;28;20063;-89
2023/08/06 07:39:50;;;;;;;1.70;1.05;;;;;;;;;;6263976;28;20329;-85
2023/08/06 07:42:51;;;;;;;1.67;0.80;;;;;;;;;;6264114;28;20064;-86
2023/08/06 07:45:53;;;;;;;3.65;0.98;;;;;;;;;;6265336;28;20140;-89
2023/08/06 07:48:54;;;;;;;3.67;0.95;;;;;;;;;;6264890;28;20049;-91
2023/08/06 07:51:56;;;;;;;2.55;1.00;;;;;;;;;;6263156;28;20053;-86
2023/08/06 07:55:00;;;;;;;1.58;0.88;;;;;;;;;;6265129;28;20056;-89
2023/08/06 07:58:01;;;;;;;2.22;1.02;;;;;;;;;;6261916;28;20116;-88
2023/08/06 08:01:03;;;;;;;2.67;0.82;;;;;;;;;;6264901;28;20049;-90
2023/08/06 08:04:05;;;;;;;1.10;0.70;;;;;;;;;;6263739;28;20138;-89
2023/08/06 08:07:06;;;;;;;1.38;0.70;;;;;;;;;;6265371;28;20052;-86
2023/08/06 08:10:10;;;;;;;2.20;0.80;;;;;;;;;;6265488;28;20041;-83
2023/08/06 08:13:20;;;;;;;3.08;0.90;;;;;;;;;;6263226;28;20345;-85
2023/08/06 08:16:22;;;;;;;1.55;1.02;;;;;;;;;;6263073;28;20092;-89
2023/08/06 08:19:36;;;;;;;1.33;0.80;;;;;;;;;;6262844;28;20120;-88
2023/08/06 08:22:37;;;;;;;1.00;0.70;;;;;;;;;;6258935;28;20053;-84
2023/08/06 08:25:40;;;;;;;0.82;0.70;;;;;;;;;;6262685;28;20063;-80
2023/08/06 08:28:42;;;;;;;1.35;0.80;;;;;;;;;;6266445;28;20080;-86
2023/08/06 08:31:44;;;;;;;2.05;1.02;;;;;;;;;;6266062;28;20328;-90
2023/08/06 08:34:46;;;;;;;1.73;0.90;;;;;;;;;;6267465;28;20060;-86
2023/08/06 08:37:53;;;;;;;1.45;0.70;;;;;;;;;;6267429;28;20456;-86
2023/08/06 08:41:04;;;;;;;1.35;0.75;;;;;;;;;;6257946;28;20056;-84
2023/08/06 08:44:09;;;;;;;1.58;0.88;;;;;;;;;;6266073;28;20121;-89
2023/08/06 08:47:11;;;;;;;1.63;0.80;;;;;;;;;;6267286;28;20057;-89
2023/08/06 08:50:14;;;;;;;2.90;0.90;;;;;;;;;;6267744;28;20280;-88
2023/08/06 08:53:16;;;;;;;1.33;0.82;;;;;;;;;;6267131;28;20079;-84
2023/08/06 08:56:20;;;;;;;1.50;0.90;;;;;;;;;;6266925;28;20308;-86
2023/08/06 08:59:21;;;;;;;1.30;0.90;;;;;;;;;;6264519;28;20060;-86
2023/08/06 09:02:26;;;;;;;1.42;0.90;;;;;;;;;;6266500;28;20065;-85
2023/08/06 09:05:28;;;;;;;1.30;0.80;;;;;;;;;;6265563;28;20333;-86
2023/08/06 09:08:32;;;;;;;1.45;0.80;;;;;;;;;;6267679;28;20053;-85
2023/08/06 09:11:39;;;;;;;1.50;0.80;;;;;;;;;;6266368;28;20063;-86
2023/08/06 09:14:41;;;;;;;1.08;0.70;;;;;;;;;;6266657;28;20045;-85
2023/08/06 09:17:43;;;;;;;1.98;0.90;;;;;;;;;;6266459;28;20049;-87
2023/08/06 09:20:44;;;;;;;1.42;0.80;;;;;;;;;;6265953;28;20059;-88
2023/08/06 09:27:14;;;;;;;0.82;0.50;;;;;;;;;;6255572;28;20245;-87
2023/08/06 09:30:29;;;;;;;0.93;0.57;;;;;;;;;;6266690;28;20330;-87
2023/08/06 09:33:31;;;;;;;1.23;0.63;;;;;;;;;;6264910;28;20076;-85
2023/08/06 09:36:33;;;;;;;2.50;0.65;;;;;;;;;;6264617;28;20360;-84
2023/08/06 09:39:34;;;;;;;0.93;0.50;;;;;;;;;;6265326;28;20053;-82
2023/08/06 09:42:43;;;;;;;0.60;0.50;;;;;;;;;;6265879;28;20045;-84
2023/08/06 09:45:45;;;;;;;2.38;0.70;;;;;;;;;;6264748;28;20100;-84
2023/08/06 09:48:47;;;;;;;1.05;0.60;;;;;;;;;;6265036;28;20697;-81
2023/08/06 09:51:50;;;;;;;1.70;0.53;;;;;;;;;;6266425;28;20044;-87
2023/08/06 09:54:52;;;;;;;1.27;0.60;;;;;;;;;;6265597;28;20064;-87
2023/08/06 09:57:56;;;;;;;1.08;0.50;;;;;;;;;;6265664;28;20038;-85
2023/08/06 10:00:57;;;;;;;3.90;0.73;;;;;;;;;;6263726;28;20053;-87
2023/08/06 10:03:59;;;;;;;0.70;0.40;;;;;;;;;;6264918;28;20312;-85
2023/08/06 10:07:01;;;;;;;1.08;0.65;;;;;;;;;;6263910;28;20053;-84
2023/08/06 10:10:03;;;;;;;1.02;0.45;;;;;;;;;;6264524;28;20061;-84
2023/08/06 10:13:07;;;;;;;0.80;0.43;;;;;;;;;;6265719;28;20045;-84
2023/08/06 10:16:09;;;;;;;1.10;0.77;;;;;;;;;;6265181;28;20056;-83
2023/08/06 10:22:34;;;;;;;2.53;0.75;;;;;;;;;;6262297;28;20057;-82
2023/08/06 10:25:41;;;;;;;1.23;0.70;;;;;;;;;;6265206;28;20106;-80
2023/08/06 10:28:44;;;;;;;0.63;0.60;;;;;;;;;;6264718;28;20123;-84
2023/08/06 10:32:18;;;;;;;0.90;0.80;;;;;;;;;;6263458;28;20061;-84
2023/08/06 10:35:29;;;;;;;0.90;0.60;;;;;;;;;;6257379;28;20072;-82
2023/08/06 10:38:32;;;;;;;0.77;0.70;;;;;;;;;;6265937;28;20061;-83
2023/08/06 10:41:33;;;;;;;0.95;0.63;;;;;;;;;;6251365;28;20216;-85
2023/08/06 10:45:11;;;;;;;0.70;0.60;;;;;;;;;;6264992;28;20057;-84
2023/08/06 10:48:26;;;;;;;0.63;0.45;;;;;;;;;;6263645;28;20075;-84
2023/08/06 10:51:28;;;;;;;0.70;0.55;;;;;;;;;;6263325;28;20139;-85
2023/08/06 10:54:30;;;;;;;1.13;0.50;;;;;;;;;;6265650;28;20072;-85
2023/08/06 10:57:31;;;;;;;0.47;0.40;;;;;;;;;;6261783;28;20056;-85
2023/08/06 11:00:45;;;;;;;0.85;0.57;;;;;;;;;;6263147;28;20064;-84
2023/08/06 11:03:49;;;;;;;0.82;0.50;;;;;;;;;;6263292;28;20063;-84
2023/08/06 11:06:53;;;;;;;0.80;0.60;;;;;;;;;;6263830;28;20283;-84
2023/08/06 11:10:01;;;;;;;2.28;0.60;;;;;;;;;;6262655;28;20072;-84
2023/08/06 11:13:03;;;;;;;0.95;0.57;;;;;;;;;;6263246;28;20057;-85
2023/08/06 11:16:06;;;;;;;1.10;0.80;;;;;;;;;;6264857;28;20241;-81
2023/08/06 11:19:08;;;;;;;0.93;0.70;;;;;;;;;;6266350;28;20087;-84
2023/08/06 11:22:10;;;;;;;0.93;0.60;;;;;;;;;;6265152;28;20326;-83
2023/08/06 11:25:11;;;;;;;1.20;0.50;;;;;;;;;;6263765;28;20061;-83
2023/08/06 11:28:13;;;;;;;1.42;0.70;;;;;;;;;;6265416;28;20087;-83
2023/08/06 11:31:23;;;;;;;0.87;0.67;;;;;;;;;;6260564;28;20080;-83
2023/08/06 11:34:24;;;;;;;0.90;0.70;;;;;;;;;;6243514;28;20506;-84
2023/08/06 11:37:26;;;;;;;2.77;1.13;;;;;;;;;;6239090;28;20072;-81
2023/08/06 11:40:27;;;;;;;1.90;0.80;;;;;;;;;;6239805;28;20471;-83
2023/08/06 11:43:31;;;;;;;1.33;0.70;;;;;;;;;;6237780;28;20113;-84
2023/08/06 11:46:48;;;;;;;1.40;0.82;;;;;;;;;;6237824;28;20859;-83
2023/08/06 11:49:51;;;;;;;0.93;0.60;;;;;;;;;;6238288;28;20059;-86
2023/08/06 11:52:57;;;;;;;1.23;0.88;;;;;;;;;;6238771;28;20302;-84
2023/08/06 11:55:58;;;;;;;3.95;0.75;;;;;;;;;;6239442;28;20066;-83
2023/08/06 11:59:01;;;;;;;0.95;0.70;;;;;;;;;;6238685;28;20092;-81
2023/08/06 12:02:05;;;;;;;3.95;0.60;;;;;;;;;;6238550;28;20073;-81
2023/08/06 12:05:11;;;;;;;1.48;0.80;;;;;;;;;;6242916;28;20105;-83
2023/08/06 12:08:30;;;;;;;1.30;0.80;;;;;;;;;;6243041;28;20060;-84
2023/08/06 12:11:31;;;;;;;1.00;0.73;;;;;;;;;;6242965;28;20045;-84
2023/08/06 12:14:33;;;;;;;1.07;0.70;;;;;;;;;;6248748;28;20242;-85
2023/08/06 12:17:35;;;;;;;1.15;0.75;;;;;;;;;;6248030;28;20049;-84
2023/08/06 12:20:38;;;;;;;1.38;0.68;;;;;;;;;;6243590;28;20114;-82
2023/08/06 12:23:50;;;;;;;;;;;;;;;;;;;;;
2023/08/06 12:26:51;;;;;;;0.70;0.60;;;;;;;;;;6244151;28;20116;-83
2023/08/06 12:29:53;;;;;;;1.20;0.70;;;;;;;;;;6244207;28;20069;-85
2023/08/06 12:32:55;;;;;;;1.13;0.70;;;;;;;;;;6241414;28;20065;-85
2023/08/06 12:35:57;;;;;;;2.45;0.82;;;;;;;;;;6242455;28;20237;-84
2023/08/06 12:38:59;;;;;;;1.67;0.80;;;;;;;;;;6244072;28;20073;-86
2023/08/06 12:42:01;;;;;;;1.00;0.70;;;;;;;;;;6242773;28;20095;-84
2023/08/06 12:45:03;;;;;;;1.02;0.68;;;;;;;;;;6240840;28;20060;-85
2023/08/06 12:48:04;;;;;;;1.15;0.70;;;;;;;;;;6244499;28;20060;-84
2023/08/06 12:51:07;;;;;;;1.25;0.75;;;;;;;;;;6243510;28;20107;-84
2023/08/06 12:54:09;;;;;;;1.00;0.80;;;;;;;;;;6243246;28;20053;-84
2023/08/06 12:57:23;;;;;;;0.90;0.60;;;;;;;;;;6243168;28;20057;-83
2023/08/06 13:00:25;;;;;;;0.77;0.63;;;;;;;;;;6241958;28;20073;-83
2023/08/06 13:03:27;;;;;;;1.42;0.80;;;;;;;;;;6242762;28;20041;-84
2023/08/06 13:06:32;;;;;;;0.90;0.65;;;;;;;;;;6243598;28;20113;-83
2023/08/06 13:09:40;;;;;;;1.05;0.68;;;;;;;;;;6243818;28;20057;-83
2023/08/06 13:12:51;;;;;;;1.92;0.90;;;;;;;;;;6240761;28;20092;-82
2023/08/06 13:15:52;;;;;;;1.10;0.80;;;;;;;;;;6242462;28;20079;-84
2023/08/06 13:18:54;;;;;;;1.75;0.65;;;;;;;;;;6244195;28;20120;-84
2023/08/06 13:22:06;;;;;;;0.50;0.40;;;;;;;;;;6241405;28;20068;-83
2023/08/06 13:25:22;;;;;;;1.88;0.40;;;;;;;;;;6239256;28;20057;-83
2023/08/06 13:28:34;;;;;;;1.92;0.60;;;;;;;;;;6240646;28;20057;-83
2023/08/06 13:31:39;;;;;;;2.45;0.50;;;;;;;;;;6227013;28;20079;-81
2023/08/06 13:34:40;;;;;;;0.63;0.32;;;;;;;;;;6243471;28;20072;-82
2023/08/06 13:37:42;;;;;;;;;;;;;;;;;;6241319;28;20074;-83
2023/08/06 13:40:46;;;;;;;0.50;0.30;;;;;;;;;;6242686;28;19926;-84
2023/08/06 13:43:47;;;;;;;1.17;0.50;;;;;;;;;;6241169;28;20061;-84
2023/08/06 13:46:49;;;;;;;1.27;0.40;;;;;;;;;;6242573;28;20046;-83
2023/08/06 13:49:51;;;;;;;0.30;0.30;;;;;;;;;;6239813;28;20049;-83
2023/08/06 13:52:55;;;;;;;0.40;0.40;;;;;;;;;;6239142;28;20402;-84
2023/08/06 13:56:05;;;;;;;1.23;0.40;;;;;;;;;;6242490;28;20046;-83
2023/08/06 13:59:18;;;;;;;0.32;0.32;;;;;;;;;;6241924;28;20052;-83
2023/08/06 14:05:43;;;;;;;1.60;0.30;;;;;;;;;;6226216;28;20168;-84
2023/08/06 14:08:45;;;;;;;0.65;0.40;;;;;;;;;;6241471;28;20060;-83
2023/08/06 14:11:48;;;;;;;0.82;0.30;;;;;;;;;;6241184;28;20056;-84
2023/08/06 14:14:50;;;;;;;0.88;0.40;;;;;;;;;;6242272;28;20077;-84
2023/08/06 14:17:51;;;;;;;;;;;;;;;;;;6240962;28;20073;-84
2023/08/06 14:20:53;;;;;;;0.60;0.40;;;;;;;;;;6239362;28;19917;-84
2023/08/06 14:23:54;;;;;;;0.55;0.38;;;;;;;;;;6240777;28;20059;-84
2023/08/06 14:26:57;;;;;;;1.40;0.15;;;;;;;;;;6237169;28;20060;-83
2023/08/06 14:30:00;;;;;;;0.88;0.30;;;;;;;;;;6240052;28;20057;-84
2023/08/06 14:33:03;;;;;;;0.88;0.38;;;;;;;;;;6241294;28;20053;-84
2023/08/06 14:36:05;;;;;;;2.92;0.32;;;;;;;;;;6240573;28;20052;-83
2023/08/06 14:39:06;;;;;;;2.60;0.40;;;;;;;;;;6239711;28;20056;-83
2023/08/06 14:42:09;;;;;;;2.35;0.38;;;;;;;;;;6240799;28;20042;-84
2023/08/06 14:45:13;;;;;;;0.50;0.30;;;;;;;;;;6237949;28;20244;-84
2023/08/06 14:48:14;;;;;;;0.40;0.40;;;;;;;;;;6241147;28;20064;-84
2023/08/06 14:51:18;;;;;;;0.98;0.40;;;;;;;;;;6239145;28;20540;-83
2023/08/06 14:54:22;;;;;;;0.77;0.50;;;;;;;;;;6229599;28;20048;-84
2023/08/06 14:57:27;;;;;;;1.42;0.30;;;;;;;;;;6237841;28;20057;-83
2023/08/06 15:00:31;;;;;;;0.98;0.30;;;;;;;;;;6230255;28;20057;-82
2023/08/06 15:03:45;;;;;;;0.52;0.30;;;;;;;;;;6239336;28;20112;-83
2023/08/06 15:06:56;;;;;;;1.05;0.28;;;;;;;;;;6238944;28;20045;-83
2023/08/06 15:09:58;;;;;;;0.35;0.28;;;;;;;;;;6238908;28;20046;-85
2023/08/06 15:13:08;;;;;;;0.50;0.30;;;;;;;;;;6238642;28;20057;-84
2023/08/06 15:16:09;;;;;;;0.30;0.20;;;;;;;;;;6240682;28;20050;-84
2023/08/06 15:19:20;;;;;;;0.22;0.20;;;;;;;;;;6240060;28;20069;-84
2023/08/06 15:22:21;;;;;;;2.05;0.30;;;;;;;;;;6240538;28;20067;-82
2023/08/06 15:25:23;;;;;;;0.20;0.20;;;;;;;;;;6241972;28;20077;-84
2023/08/06 15:28:26;;;;;;;2.13;0.30;;;;;;;;;;6238693;28;20053;-84
2023/08/06 15:31:36;;;;;;;0.13;0.13;;;;;;;;;;6244152;28;20069;-80
2023/08/06 15:34:37;;;;;;;0.47;0.30;;;;;;;;;;6264896;28;20057;-84
2023/08/06 15:37:39;;;;;;;0.13;0.10;;;;;;;;;;6268172;28;20111;-82
2023/08/06 15:40:41;;;;;;;0.52;0.10;;;;;;;;;;6271831;28;20155;-84
2023/08/06 15:43:47;;;;;;;0.27;0.23;;;;;;;;;;6267132;28;20073;-84
2023/08/06 15:46:48;;;;;;;2.40;0.57;;;;;;;;;;6271038;28;20049;-84
2023/08/06 15:49:50;;;;;;;2.83;0.67;;;;;;;;;;6268325;28;20053;-82
2023/08/06 15:52:52;;;;;;;0.50;0.30;;;;;;;;;;6270389;28;20053;-84
2023/08/06 15:55:53;;;;;;;1.97;0.27;;;;;;;;;;6260952;28;20056;-83
2023/08/06 15:58:56;;;;;;;2.80;0.30;;;;;;;;;;6270086;28;20490;-83
2023/08/06 16:01:58;;;;;;;0.55;0.25;;;;;;;;;;6267119;28;20132;-85
2023/08/06 16:05:00;;;;;;;0.55;0.20;;;;;;;;;;6266562;28;20049;-83
2023/08/06 16:08:02;;;;;;;0.45;0.25;;;;;;;;;;6268012;28;20336;-84
2023/08/06 16:11:04;;;;;;;0.47;0.22;;;;;;;;;;6266238;28;20053;-84
2023/08/06 16:14:10;;;;;;;0.98;0.43;;;;;;;;;;6266677;28;20053;-83
2023/08/06 16:17:12;;;;;;;1.88;0.30;;;;;;;;;;6269423;28;20057;-84
2023/08/06 16:20:14;;;;;;;0.55;0.30;;;;;;;;;;6266938;28;20049;-84
2023/08/06 16:23:15;;;;;;;0.43;0.20;;;;;;;;;;6266275;28;20045;-82
2023/08/06 16:26:17;;;;;;;0.40;0.20;;;;;;;;;;6269749;28;20052;-84
2023/08/06 16:29:20;;;;;;;0.43;0.20;;;;;;;;;;6266899;28;20112;-84
2023/08/06 16:32:22;;;;;;;0.70;0.40;;;;;;;;;;6256054;28;20213;-84
2023/08/06 16:35:23;;;;;;;0.63;0.30;;;;;;;;;;6243334;28;20046;-84
2023/08/06 16:38:25;;;;;;;0.28;0.20;;;;;;;;;;6241356;28;20057;-84
2023/08/06 16:41:26;;;;;;;0.17;0.17;;;;;;;;;;6242026;28;20057;-82
2023/08/06 16:44:31;;;;;;;0.73;0.20;;;;;;;;;;6245860;28;20262;-84
2023/08/06 16:47:33;;;;;;;1.42;0.20;;;;;;;;;;6242687;28;20135;-84
2023/08/06 16:50:34;;;;;;;0.30;0.17;;;;;;;;;;6240962;28;20381;-84
2023/08/06 16:53:36;;;;;;;0.57;0.30;;;;;;;;;;6242961;28;20060;-85
2023/08/06 16:56:37;;;;;;;0.52;0.28;;;;;;;;;;6241557;28;20057;-83
2023/08/06 16:59:40;;;;;;;1.17;0.40;;;;;;;;;;6244213;28;20063;-84
2023/08/06 17:02:42;;;;;;;2.22;0.30;;;;;;;;;;6239939;28;20080;-84
2023/08/06 17:05:44;;;;;;;1.75;0.60;;;;;;;;;;6241609;28;20155;-83
2023/08/06 17:08:58;;;;;;;0.40;0.20;;;;;;;;;;6242986;28;20054;-82
2023/08/06 17:11:59;;;;;;;1.38;0.50;;;;;;;;;;6241431;28;20052;-83
2023/08/06 17:15:02;;;;;;;0.63;0.30;;;;;;;;;;6243137;28;20383;-84
2023/08/06 17:18:04;;;;;;;1.17;0.45;;;;;;;;;;6244600;28;20132;-83
2023/08/06 17:24:27;;;;;;;1.20;0.30;;;;;;;;;;6240825;28;20057;-85
2023/08/06 17:27:47;;;;;;;2.28;0.50;;;;;;;;;;6237300;28;20365;-83
2023/08/06 17:30:50;;;;;;;1.05;0.50;;;;;;;;;;6240310;28;20277;-85
2023/08/06 17:33:54;;;;;;;;;;;;;;;;;;6241879;28;20050;-86
2023/08/06 17:36:59;;;;;;;2.05;0.40;;;;;;;;;;6238490;28;19925;-87
2023/08/06 17:40:01;;;;;;;0.82;0.50;;;;;;;;;;6242269;28;20060;-83
2023/08/06 17:43:03;;;;;;;0.82;0.40;;;;;;;;;;6236717;28;20096;-86
2023/08/06 17:46:05;;;;;;;1.23;0.50;;;;;;;;;;6243709;28;20061;-88
2023/08/06 17:49:07;;;;;;;;;;;;;;;;;;6240470;28;20045;-87
2023/08/06 17:55:46;;;;;;;1.35;0.40;;;;;;;;;;6229851;28;20037;-85
2023/08/06 17:58:47;;;;;;;0.38;0.22;;;;;;;;;;6241397;28;20085;-85
2023/08/06 18:01:50;;;;;;;0.60;0.40;;;;;;;;;;6242711;28;20053;-85
2023/08/06 18:04:52;;;;;;;0.40;0.20;;;;;;;;;;6241647;28;20056;-85
2023/08/06 18:07:53;;;;;;;0.50;0.30;;;;;;;;;;6242085;28;20060;-83
2023/08/06 18:10:55;;;;;;;1.55;0.32;;;;;;;;;;6242407;28;20378;-85
2023/08/06 18:13:57;;;;;;;0.70;0.40;;;;;;;;;;6241168;28;20163;-87
2023/08/06 18:21:28;;;;;;;;;;;;;;;;;;;;;
2023/08/06 18:24:45;;;;;;;1.27;0.63;;;;;;;;;;6205067;28;22246;-87
2023/08/06 18:27:57;;;;;;;0.82;0.52;;;;;;;;;;6239344;28;20053;-86
2023/08/06 18:30:58;;;;;;;0.68;0.40;;;;;;;;;;6240224;28;20060;-88
2023/08/06 18:34:00;;;;;;;0.60;0.40;;;;;;;;;;6241436;28;20041;-84
2023/08/06 18:37:01;;;;;;;0.95;0.40;;;;;;;;;;6238427;28;20049;-87
2023/08/06 18:40:03;;;;;;;0.60;0.40;;;;;;;;;;6238501;28;20058;-86
2023/08/06 18:43:07;;;;;;;0.77;0.43;;;;;;;;;;6238511;28;20061;-82